createdAt,value
2019-06-07T00:01:53.540Z,8.13
2019-06-07T00:06:57.738Z,7.47
2019-06-07T00:12:02.052Z,7.53
2019-06-07T00:17:07.915Z,8.30
2019-06-07T00:22:19.571Z,8.05
2019-06-07T00:27:22.290Z,7.08
2019-06-07T00:32:25.429Z,6.65
2019-06-07T00:37:29.634Z,6.97
2019-06-07T00:42:33.833Z,5.58
2019-06-07T00:47:38.132Z,6.35
2019-06-07T00:53:13.186Z,5.33
2019-06-07T00:57:48.376Z,5.42
2019-06-07T01:02:52.581Z,5.95
2019-06-07T01:07:56.890Z,6.65
2019-06-07T01:13:03.610Z,6.78
2019-06-07T01:23:59.713Z,6.75
2019-06-07T01:28:27.744Z,6.10
2019-06-07T01:33:50.389Z,4.92
2019-06-07T01:38:38.515Z,4.30
2019-06-07T01:43:42.711Z,3.67
2019-06-07T01:48:49.869Z,4.00
2019-06-07T01:54:41.531Z,4.20
2019-06-07T01:58:58.815Z,3.87
2019-06-07T02:04:03.493Z,3.47
2019-06-07T02:09:08.282Z,3.30
2019-06-07T02:14:12.523Z,3.33
2019-06-07T02:19:16.681Z,3.58
2019-06-07T02:24:24.446Z,4.08
2019-06-07T02:29:30.267Z,5.10
2019-06-07T02:34:38.758Z,5.53
2019-06-07T02:39:41.086Z,5.10
2019-06-07T02:44:44.565Z,3.87
2019-06-07T02:49:48.790Z,4.17
2019-06-07T02:54:52.979Z,4.65
2019-06-07T03:00:16.559Z,4.53
2019-06-07T03:05:03.606Z,5.12
2019-06-07T03:10:09.289Z,4.50
2019-06-07T03:15:31.966Z,5.12
2019-06-07T03:20:20.686Z,4.75
2019-06-07T03:25:26.327Z,4.70
2019-06-07T03:30:52.231Z,4.72
2019-06-07T03:35:37.613Z,4.40
2019-06-07T03:40:41.873Z,4.50
2019-06-07T03:45:46.068Z,5.00
2019-06-07T03:51:04.136Z,4.60
2019-06-07T03:55:56.221Z,4.30
2019-06-07T04:01:02.176Z,4.53
2019-06-07T04:06:06.511Z,4.22
2019-06-07T04:11:10.733Z,4.20
2019-06-07T04:16:14.925Z,5.20
2019-06-07T04:21:19.127Z,5.65
2019-06-07T04:26:23.312Z,5.22
2019-06-07T04:31:28.374Z,5.20
2019-06-07T04:36:47.536Z,4.75
2019-06-07T04:41:41.333Z,4.78
2019-06-07T04:46:48.798Z,4.75
2019-06-07T04:51:54.265Z,4.35
2019-06-07T04:56:58.447Z,4.33
2019-06-07T05:02:02.665Z,4.20
2019-06-07T05:07:06.856Z,3.40
2019-06-07T05:12:11.077Z,3.47
2019-06-07T05:17:15.294Z,5.55
2019-06-07T05:22:19.490Z,3.42
2019-06-07T05:27:24.747Z,3.55
2019-06-07T05:32:29.105Z,3.42
2019-06-07T05:37:35.790Z,5.17
2019-06-07T05:42:45.887Z,4.08
2019-06-07T05:47:50.739Z,3.70
2019-06-07T05:52:52.659Z,3.55
2019-06-07T05:57:56.852Z,3.70
2019-06-07T06:03:05.676Z,3.55
2019-06-07T06:08:07.074Z,3.62
2019-06-07T06:13:11.271Z,3.40
2019-06-07T06:18:16.123Z,4.10
2019-06-07T06:23:20.388Z,3.77
2019-06-07T06:28:24.690Z,3.33
2019-06-07T06:33:34.507Z,3.30
2019-06-07T06:38:34.822Z,3.27
2019-06-07T06:43:41.464Z,3.35
2019-06-07T06:48:50.922Z,3.83
2019-06-07T06:53:52.620Z,3.80
2019-06-07T06:59:35.185Z,2.45
2019-06-07T07:04:12.003Z,2.90
2019-06-07T07:09:09.518Z,3.47
2019-06-07T07:14:13.705Z,2.52
2019-06-07T07:19:17.934Z,2.37
2019-06-07T07:24:25.268Z,3.62
2019-06-07T07:29:29.509Z,3.40
2019-06-07T07:34:36.988Z,3.00
2019-06-07T07:39:40.153Z,3.12
2019-06-07T07:44:45.020Z,2.85
2019-06-07T07:49:53.006Z,2.83
2019-06-07T07:54:58.341Z,3.47
2019-06-07T08:00:47.899Z,3.50
2019-06-07T08:05:25.239Z,7.97
2019-06-07T08:10:14.251Z,4.12
2019-06-07T08:15:18.516Z,4.22
2019-06-07T08:20:22.902Z,3.72
2019-06-07T08:25:27.148Z,4.20
2019-06-07T08:30:50.669Z,5.20
2019-06-07T08:36:06.154Z,3.80
2019-06-07T08:40:43.298Z,4.10
2019-06-07T08:45:47.495Z,3.95
2019-06-07T08:50:57.063Z,3.98
2019-06-07T08:56:04.791Z,4.15
2019-06-07T09:01:06.413Z,3.70
2019-06-07T09:06:53.931Z,3.90
2019-06-07T09:11:15.443Z,3.87
2019-06-07T09:16:19.836Z,3.42
2019-06-07T09:21:24.009Z,4.20
2019-06-07T09:26:28.544Z,4.20
2019-06-07T09:31:51.190Z,3.17
2019-06-07T09:36:37.580Z,3.35
2019-06-07T09:41:49.349Z,2.87
2019-06-07T09:46:47.621Z,3.25
2019-06-07T09:51:51.803Z,4.83
2019-06-07T09:56:56.000Z,3.95
2019-06-07T10:02:03.638Z,3.95
2019-06-07T10:07:16.913Z,4.08
2019-06-07T10:12:13.913Z,4.03
2019-06-07T10:17:18.117Z,4.00
2019-06-07T10:22:22.315Z,3.12
2019-06-07T10:27:26.502Z,3.85
2019-06-07T10:32:30.780Z,3.30
2019-06-07T10:37:34.919Z,3.50
2019-06-07T10:42:39.124Z,3.77
2019-06-07T10:47:43.355Z,2.70
2019-06-07T10:52:47.542Z,2.72
2019-06-07T10:57:51.752Z,2.27
2019-06-07T11:02:55.947Z,2.58
2019-06-07T11:08:00.762Z,2.50
2019-06-07T11:13:06.099Z,2.87
2019-06-07T11:18:10.418Z,4.00
2019-06-07T11:23:14.588Z,2.98
2019-06-07T11:28:18.778Z,2.52
2019-06-07T11:33:22.986Z,5.92
2019-06-07T11:38:27.187Z,2.17
2019-06-07T11:43:31.380Z,2.30
2019-06-07T11:48:35.564Z,1.98
2019-06-07T11:53:39.882Z,3.80
2019-06-07T11:58:44.073Z,2.12
2019-06-07T12:03:48.270Z,2.35
2019-06-07T12:08:52.467Z,4.50
2019-06-07T12:13:56.852Z,2.00
2019-06-07T12:19:01.063Z,2.12
2019-06-07T12:24:05.454Z,2.50
2019-06-07T12:29:10.742Z,2.40
2019-06-07T12:34:15.547Z,2.50
2019-06-07T12:39:20.140Z,1.95
2019-06-07T12:44:24.416Z,1.98
2019-06-07T12:49:28.657Z,2.10
2019-06-07T12:54:32.895Z,2.25
2019-06-07T12:59:37.046Z,3.10
2019-06-07T13:04:41.247Z,2.47
2019-06-07T13:09:45.470Z,2.00
2019-06-07T13:14:49.716Z,2.00
2019-06-07T13:19:53.903Z,2.12
2019-06-07T13:24:59.535Z,2.08
2019-06-07T13:30:09.924Z,2.20
2019-06-07T13:35:10.523Z,2.27
2019-06-07T13:40:16.397Z,2.70
2019-06-07T13:45:22.157Z,2.00
2019-06-07T13:50:26.560Z,2.47
2019-06-07T13:55:30.749Z,2.30
2019-06-07T14:00:34.946Z,2.20
2019-06-07T14:05:39.806Z,2.70
2019-06-07T14:10:44.104Z,2.40
2019-06-07T14:15:48.318Z,2.05
2019-06-07T14:20:52.494Z,2.42
2019-06-07T14:25:56.687Z,3.50
2019-06-07T14:31:00.900Z,3.67
2019-06-07T14:36:05.082Z,3.47
2019-06-07T14:41:09.287Z,3.35
2019-06-07T14:46:13.507Z,2.52
2019-06-07T14:51:17.719Z,4.35
2019-06-07T14:56:21.939Z,2.60
2019-06-07T15:01:26.317Z,4.83
2019-06-07T15:06:32.786Z,2.30
2019-06-07T15:11:37.014Z,3.75
2019-06-07T15:16:41.278Z,3.40
2019-06-07T15:21:45.459Z,2.52
2019-06-07T15:26:49.678Z,2.45
2019-06-07T15:31:53.934Z,3.62
2019-06-07T15:36:58.124Z,2.33
2019-06-07T15:42:02.338Z,2.40
2019-06-07T15:47:06.506Z,2.50
2019-06-07T15:52:10.748Z,2.70
2019-06-07T15:57:14.949Z,2.67
2019-06-07T16:02:19.141Z,2.85
2019-06-07T16:07:23.336Z,3.25
2019-06-07T16:12:27.546Z,2.62
2019-06-07T16:17:32.994Z,2.83
2019-06-07T16:22:37.626Z,2.62
2019-06-07T16:27:42.821Z,2.83
2019-06-07T16:32:47.206Z,3.02
2019-06-07T16:37:52.432Z,2.50
2019-06-07T16:42:56.934Z,2.47
2019-06-07T16:48:01.138Z,28.12
2019-06-07T16:53:05.638Z,17.02
2019-06-07T16:58:09.848Z,3.37
2019-06-07T17:03:14.056Z,3.62
2019-06-07T17:08:18.286Z,3.33
2019-06-07T17:13:32.928Z,3.45
2019-06-07T17:18:28.485Z,4.10
2019-06-07T17:23:32.678Z,5.33
2019-06-07T17:28:36.869Z,4.75
2019-06-07T17:33:41.957Z,4.60
2019-06-07T17:38:46.594Z,4.42
2019-06-07T17:43:58.473Z,4.62
2019-06-07T17:48:57.120Z,4.78
2019-06-07T17:54:01.340Z,5.30
2019-06-07T17:59:05.569Z,4.75
2019-06-07T18:04:09.771Z,5.78
2019-06-07T18:09:14.272Z,5.70
2019-06-07T18:14:18.465Z,5.83
2019-06-07T18:19:22.692Z,5.67
2019-06-07T18:24:26.906Z,7.70
2019-06-07T18:29:31.112Z,6.92
2019-06-07T18:34:35.315Z,6.72
2019-06-07T18:39:39.763Z,8.53
2019-06-07T18:44:45.344Z,7.22
2019-06-07T18:49:49.626Z,8.50
2019-06-07T18:54:55.075Z,8.58
2019-06-07T18:59:59.467Z,9.58
2019-06-07T19:05:03.682Z,7.00
2019-06-07T19:10:08.703Z,5.53
2019-06-07T19:15:13.966Z,9.03
2019-06-07T19:20:20.266Z,9.23
2019-06-07T19:25:24.861Z,9.53
2019-06-07T19:30:29.070Z,11.35
2019-06-07T19:35:33.297Z,11.70
2019-06-07T19:40:37.483Z,11.43
2019-06-07T19:45:41.692Z,10.60
2019-06-07T19:50:45.902Z,12.18
2019-06-07T19:55:50.140Z,12.37
2019-06-07T20:00:55.489Z,11.73
2019-06-07T20:06:00.212Z,12.40
2019-06-07T20:11:04.865Z,12.55
2019-06-07T20:16:09.189Z,13.03
2019-06-07T20:21:13.424Z,12.82
2019-06-07T20:26:17.641Z,11.65
2019-06-07T20:31:21.862Z,11.80
2019-06-07T20:36:26.112Z,11.93
2019-06-07T20:41:30.317Z,12.58
2019-06-07T20:46:34.521Z,11.80
2019-06-07T20:51:38.723Z,12.35
2019-06-07T20:56:42.918Z,12.00
2019-06-07T21:01:47.199Z,12.50
2019-06-07T21:06:51.426Z,11.65
2019-06-07T21:11:55.688Z,12.58
2019-06-07T21:16:59.992Z,11.55
2019-06-07T21:22:04.598Z,11.73
2019-06-07T21:27:09.496Z,11.12
2019-06-07T21:32:13.836Z,10.68
2019-06-07T21:37:18.035Z,11.93
2019-06-07T21:42:22.276Z,11.45
2019-06-07T21:47:26.498Z,11.40
2019-06-07T21:52:30.697Z,11.12
2019-06-07T21:57:34.903Z,12.18
2019-06-07T22:02:39.113Z,11.28
2019-06-07T22:07:43.342Z,11.30
2019-06-07T22:12:47.571Z,10.25
2019-06-07T22:17:51.767Z,10.82
2019-06-07T22:22:55.987Z,10.65
2019-06-07T22:28:00.220Z,11.63
2019-06-07T22:33:04.427Z,11.63
2019-06-07T22:38:08.650Z,11.48
2019-06-07T22:43:13.870Z,12.25
2019-06-07T22:48:18.180Z,12.03
2019-06-07T22:53:22.376Z,11.38
2019-06-07T22:58:26.580Z,18.07
2019-06-07T23:03:30.773Z,19.12
2019-06-07T23:08:34.971Z,12.93
2019-06-07T23:13:39.199Z,21.17
2019-06-07T23:18:43.412Z,13.15
2019-06-07T23:23:47.619Z,13.25
2019-06-07T23:28:51.823Z,14.90
2019-06-07T23:33:56.028Z,15.93
2019-06-07T23:39:00.238Z,12.78
2019-06-07T23:44:04.682Z,12.98
2019-06-07T23:49:08.873Z,14.50
2019-06-07T23:54:13.719Z,13.83
2019-06-07T23:59:18.183Z,13.53
